Time;durP1;ratioP1;P1;durP2;ratioP2;P2;SDS_P1;SDS_P2;PMS_P1;PMS_P2;Temp;Humidity;BMP_temperature;BMP_pressure;BME280_temperature;BME280_humidity;BME280_pressure;Samples;Min_cycle;Max_cycle;Signal;HPM_P1;HPM_P2
2022/09/11 00:01:29;;;;;;;;;;;;;;;14.03;97.54;96594.00;5048551;28;19969;-80
2022/09/11 00:03:56;;;;;;;;;;;;;;;14.01;97.46;96598.69;5067136;28;19956;-80
2022/09/11 00:06:22;;;;;;;;;;;;;;;13.97;98.85;96597.56;5045281;28;19963;-80
2022/09/11 00:08:52;;;;;;;;;;;;;;;13.96;97.51;96595.94;5043839;28;19949;-80
2022/09/11 00:11:19;;;;;;;;;;;;;;;13.94;98.43;96598.03;5047131;28;20437;-80
2022/09/11 00:13:46;;;;;;;;;;;;;;;13.91;98.47;96598.50;5049261;28;19956;-80
2022/09/11 00:16:26;;;;;;;;;;;;;;;13.90;98.02;96595.06;5046274;28;19956;-81
2022/09/11 00:18:52;;;;;;;;;;;;;;;13.91;99.86;96601.13;5045352;28;19959;-80
2022/09/11 00:21:19;;;;;;;;;;;;;;;13.87;95.58;96586.81;5043783;28;19960;-80
2022/09/11 00:23:45;;;;;;;;;;;;;;;13.84;98.09;96601.28;5050824;28;20428;-80
2022/09/11 00:26:11;;;;;;;;;;;;;;;13.85;98.59;96597.59;5042522;28;20437;-80
2022/09/11 00:28:37;;;;;;;;;;;;;;;13.84;98.38;96598.66;5040374;28;20068;-80
2022/09/11 00:31:06;;;;;;;;;;;;;;;13.83;97.99;96598.88;5051142;28;19989;-80
2022/09/11 00:33:32;;;;;;;;;;;;;;;13.78;98.08;96599.59;5048111;28;19957;-80
2022/09/11 00:36:00;;;;;;;;;;;;;;;13.77;97.96;96597.97;5042004;28;19961;-80
2022/09/11 00:38:27;;;;;;;;;;;;;;;13.75;98.50;96594.75;5046125;28;19957;-80
2022/09/11 00:40:54;;;;;;;;;;;;;;;13.75;98.40;96598.22;5050300;28;19955;-80
2022/09/11 00:43:20;;;;;;;;;;;;;;;13.77;98.95;96590.06;5045891;28;19972;-80
2022/09/11 00:46:07;;;;;;;;;;;;;;;13.76;98.79;96594.53;5042276;28;19966;-81
2022/09/11 00:48:35;;;;;;;;;;;;;;;13.77;99.40;96593.50;5044263;28;19951;-80
2022/09/11 00:51:05;;;;;;;;;;;;;;;13.77;98.72;96596.16;5044517;28;19964;-80
2022/09/11 00:53:33;;;;;;;;;;;;;;;13.78;99.12;96597.75;5045625;28;19958;-80
2022/09/11 00:56:01;;;;;;;;;;;;;;;13.76;98.86;96591.91;5045470;28;19973;-80
2022/09/11 00:58:29;;;;;;;;;;;;;;;13.74;97.99;96593.19;5050191;28;19969;-81
2022/09/11 01:00:55;;;;;;;;;;;;;;;13.74;98.15;96585.25;5042651;28;19957;-81
2022/09/11 01:03:22;;;;;;;;;;;;;;;13.73;98.00;96583.66;5040505;28;19970;-80
2022/09/11 01:05:48;;;;;;;;;;;;;;;13.73;98.69;96583.66;5044936;28;19984;-80
2022/09/11 01:08:14;;;;;;;;;;;;;;;13.70;97.04;96579.66;5046152;28;19956;-80
2022/09/11 01:10:40;;;;;;;;;;;;;;;13.68;97.83;96584.34;5046439;28;19950;-80
2022/09/11 01:13:29;;;;;;;;;;;;;;;13.70;98.02;96586.78;5046291;28;20010;-80
2022/09/11 01:16:02;;;;;;;;;;;;;;;13.69;98.50;96585.97;5045471;28;19969;-80
2022/09/11 01:18:35;;;;;;;;;;;;;;;13.69;98.49;96583.34;5041387;28;20405;-80
2022/09/11 01:21:20;;;;;;;;;;;;;;;13.69;98.89;96587.78;5046358;28;20436;-80
2022/09/11 01:24:05;;;;;;;;;;;;;;;13.68;99.60;96581.72;5036145;28;19971;-80
2022/09/11 01:26:46;;;;;;;;;;;;;;;13.68;99.11;96581.72;5041044;28;19963;-80
2022/09/11 01:29:38;;;;;;;;;;;;;;;13.69;99.67;96578.06;5039880;28;19961;-81
2022/09/11 01:32:09;;;;;;;;;;;;;;;13.71;100.00;96581.28;5031497;28;19956;-80
2022/09/11 01:34:46;;;;;;;;;;;;;;;13.73;99.54;96583.66;5042353;28;19972;-81
2022/09/11 01:37:23;;;;;;;;;;;;;;;13.74;100.00;96587.91;5050424;28;19961;-80
2022/09/11 01:39:55;;;;;;;;;;;;;;;13.74;100.00;96586.06;5045415;28;19964;-80
2022/09/11 01:42:22;;;;;;;;;;;;;;;13.76;100.00;96581.34;5041182;28;19974;-79
2022/09/11 01:44:50;;;;;;;;;;;;;;;13.73;98.97;96579.19;5047768;28;19963;-79
2022/09/11 01:47:17;;;;;;;;;;;;;;;13.72;99.33;96576.78;5047443;28;19960;-80
2022/09/11 01:49:47;;;;;;;;;;;;;;;13.73;99.62;96579.19;5044087;28;19971;-80
2022/09/11 01:52:19;;;;;;;;;;;;;;;13.76;100.00;96575.28;5042715;28;19964;-80
2022/09/11 01:55:06;;;;;;;;;;;;;;;13.76;100.00;96572.66;5048163;28;19962;-80
2022/09/11 01:57:37;;;;;;;;;;;;;;;13.73;99.47;96581.84;4996258;28;20345;-80
2022/09/11 02:00:07;;;;;;;;;;;;;;;13.74;100.00;96578.16;5049291;28;20402;-80
2022/09/11 02:02:35;;;;;;;;;;;;;;;13.76;100.00;96580.56;5044555;28;20356;-80
2022/09/11 02:05:06;;;;;;;;;;;;;;;13.76;100.00;96584.00;5040886;28;19969;-80
2022/09/11 02:07:52;;;;;;;;;;;;;;;13.78;100.00;96581.94;5030678;28;20404;-80
2022/09/11 02:10:25;;;;;;;;;;;;;;;13.79;100.00;96580.09;5038422;28;20438;-79
2022/09/11 02:13:06;;;;;;;;;;;;;;;13.79;100.00;96585.34;5041473;28;19983;-79
2022/09/11 02:15:39;;;;;;;;;;;;;;;13.78;100.00;96579.28;5047079;28;19951;-78
2022/09/11 02:18:12;;;;;;;;;;;;;;;13.79;100.00;96582.72;5046668;28;19965;-78
2022/09/11 02:20:38;;;;;;;;;;;;;;;13.78;100.00;96584.56;5036059;28;19953;-78
2022/09/11 02:23:05;;;;;;;;;;;;;;;13.78;100.00;96591.66;5044755;28;19970;-78
2022/09/11 02:25:31;;;;;;;;;;;;;;;13.79;100.00;96595.91;5040449;28;19963;-77
2022/09/11 02:27:58;;;;;;;;;;;;;;;13.81;100.00;96591.19;5045661;28;20070;-78
2022/09/11 02:30:24;;;;;;;;;;;;;;;13.81;100.00;96593.81;5049704;28;19972;-78
2022/09/11 02:32:50;;;;;;;;;;;;;;;13.80;100.00;96593.03;5046481;28;20425;-78
2022/09/11 02:35:16;;;;;;;;;;;;;;;13.81;100.00;96599.91;5036899;28;20006;-77
2022/09/11 02:38:03;;;;;;;;;;;;;;;13.83;100.00;96596.25;5044448;28;19964;-77
2022/09/11 02:40:47;;;;;;;;;;;;;;;13.84;100.00;96601.28;5040606;28;19968;-77
2022/09/11 02:43:19;;;;;;;;;;;;;;;13.83;100.00;96597.03;5039288;28;20461;-77
2022/09/11 02:45:56;;;;;;;;;;;;;;;13.83;100.00;96597.03;5040831;28;20022;-77
2022/09/11 02:48:42;;;;;;;;;;;;;;;13.83;100.00;96598.88;5048866;28;19957;-78
2022/09/11 02:51:14;;;;;;;;;;;;;;;13.82;100.00;96603.34;5046592;28;19953;-78
2022/09/11 02:53:41;;;;;;;;;;;;;;;13.83;100.00;96609.41;5042050;28;19960;-79
2022/09/11 02:56:10;;;;;;;;;;;;;;;13.82;100.00;96608.63;5042806;28;20410;-78
2022/09/11 02:58:39;;;;;;;;;;;;;;;13.80;100.00;96615.97;5041883;28;19955;-78
2022/09/11 03:01:07;;;;;;;;;;;;;;;13.79;100.00;96607.22;5047465;28;20343;-79
2022/09/11 03:03:50;;;;;;;;;;;;;;;13.78;100.00;96610.13;5047686;28;19967;-79
2022/09/11 03:06:18;;;;;;;;;;;;;;;13.77;100.00;96604.06;5025994;28;19948;-79
2022/09/11 03:08:44;;;;;;;;;;;;;;;13.74;100.00;96607.16;5042750;28;19959;-79
2022/09/11 03:11:10;;;;;;;;;;;;;;;13.72;100.00;96589.97;5047223;28;20431;-79
2022/09/11 03:13:36;;;;;;;;;;;;;;;13.71;100.00;96599.72;5042578;28;19963;-79
2022/09/11 03:16:03;;;;;;;;;;;;;;;13.72;100.00;96601.31;5036383;28;19956;-79
2022/09/11 03:18:29;;;;;;;;;;;;;;;13.76;100.00;96604.28;5043715;28;19966;-79
2022/09/11 03:20:55;;;;;;;;;;;;;;;13.78;100.00;96604.84;5047867;28;19969;-79
2022/09/11 03:23:21;;;;;;;;;;;;;;;13.80;100.00;96611.47;5042943;28;19973;-79
2022/09/11 03:25:47;;;;;;;;;;;;;;;13.82;100.00;96603.34;5047295;28;19968;-79
2022/09/11 03:28:13;;;;;;;;;;;;;;;13.82;100.00;96598.06;5046081;28;19982;-79
2022/09/11 03:30:40;;;;;;;;;;;;;;;13.84;100.00;96603.09;5044786;28;19962;-79
2022/09/11 03:33:06;;;;;;;;;;;;;;;13.85;100.00;96602.88;5040665;28;19966;-79
2022/09/11 03:35:33;;;;;;;;;;;;;;;13.89;100.00;96606.63;5044807;28;19955;-79
2022/09/11 03:37:59;;;;;;;;;;;;;;;13.91;100.00;96603.78;5046396;28;19956;-80
2022/09/11 03:40:25;;;;;;;;;;;;;;;13.91;100.00;96604.56;5047709;28;19956;-79
2022/09/11 03:42:51;;;;;;;;;;;;;;;13.93;100.00;96610.41;5044262;28;19978;-79
2022/09/11 03:45:18;;;;;;;;;;;;;;;13.95;100.00;96607.53;5044528;28;19964;-79
2022/09/11 03:47:44;;;;;;;;;;;;;;;13.95;100.00;96618.88;5047603;28;20447;-79
2022/09/11 03:50:10;;;;;;;;;;;;;;;13.94;100.00;96613.84;5050539;28;19996;-79
2022/09/11 03:52:36;;;;;;;;;;;;;;;13.94;100.00;96614.66;5046675;28;19952;-80
2022/09/11 03:55:03;;;;;;;;;;;;;;;13.94;100.00;96612.03;5045318;28;19983;-79
2022/09/11 03:57:31;;;;;;;;;;;;;;;13.89;100.00;96609.28;5051638;28;19970;-79
2022/09/11 03:59:57;;;;;;;;;;;;;;;13.88;100.00;96618.22;5049140;28;19948;-79
2022/09/11 04:02:23;;;;;;;;;;;;;;;13.89;100.00;96617.19;5047793;28;20017;-79
2022/09/11 04:04:49;;;;;;;;;;;;;;;13.89;100.00;96619.81;5042276;28;19966;-79
2022/09/11 04:07:15;;;;;;;;;;;;;;;13.89;100.00;96619.81;5042824;28;19965;-80
2022/09/11 04:09:40;;;;;;;;;;;;;;;13.87;100.00;96615.81;5052432;28;19973;-80
2022/09/11 04:12:06;;;;;;;;;;;;;;;13.87;100.00;96610.56;5049875;28;20001;-79
2022/09/11 04:14:33;;;;;;;;;;;;;;;13.88;100.00;96617.41;5045552;28;20443;-79
2022/09/11 04:16:59;;;;;;;;;;;;;;;13.88;100.00;96614.78;5046444;28;19964;-80
2022/09/11 04:19:24;;;;;;;;;;;;;;;13.91;100.00;96623.03;5040107;28;20300;-79
2022/09/11 04:21:50;;;;;;;;;;;;;;;13.92;100.00;96623.81;5045860;28;19960;-79
2022/09/11 04:24:16;;;;;;;;;;;;;;;13.92;100.00;96622.00;5049748;28;19974;-79
2022/09/11 04:26:42;;;;;;;;;;;;;;;13.92;100.00;96619.38;5038996;28;19986;-78
2022/09/11 04:29:08;;;;;;;;;;;;;;;13.92;100.00;96624.66;5042642;28;19970;-78
2022/09/11 04:31:35;;;;;;;;;;;;;;;13.93;100.00;96618.31;5046779;28;20012;-77
2022/09/11 04:34:00;;;;;;;;;;;;;;;13.90;100.00;96625.88;5031040;28;19963;-77
2022/09/11 04:36:28;;;;;;;;;;;;;;;13.86;100.00;96628.22;5043436;28;19958;-78
2022/09/11 04:38:56;;;;;;;;;;;;;;;13.84;100.00;96627.66;5045475;28;19963;-78
2022/09/11 04:41:23;;;;;;;;;;;;;;;13.81;100.00;96628.88;5049174;28;19950;-79
2022/09/11 04:43:52;;;;;;;;;;;;;;;13.83;100.00;96635.78;5042514;28;19992;-79
2022/09/11 04:46:18;;;;;;;;;;;;;;;13.84;100.00;96640.81;5042616;28;19958;-78
2022/09/11 04:48:44;;;;;;;;;;;;;;;13.87;100.00;96644.81;5044698;28;20322;-78
2022/09/11 04:51:10;;;;;;;;;;;;;;;13.88;100.00;96641.97;5049793;28;19969;-78
2022/09/11 04:53:36;;;;;;;;;;;;;;;13.89;100.00;96650.66;5059462;28;19959;-79
2022/09/11 04:56:03;;;;;;;;;;;;;;;13.89;100.00;96640.91;5040810;28;19964;-79
2022/09/11 04:58:29;;;;;;;;;;;;;;;13.91;100.00;96640.69;5047619;28;19970;-79
2022/09/11 05:00:55;;;;;;;;;;;;;;;13.91;100.00;96654.66;5048959;28;20029;-79
2022/09/11 05:03:21;;;;;;;;;;;;;;;13.92;100.00;96653.66;5046467;28;19974;-79
2022/09/11 05:05:47;;;;;;;;;;;;;;;13.93;100.00;96657.06;5039253;28;20410;-79
2022/09/11 05:08:13;;;;;;;;;;;;;;;13.93;100.00;96657.06;5047639;28;19974;-79
2022/09/11 05:10:39;;;;;;;;;;;;;;;13.91;100.00;96659.94;5044098;28;19958;-79
2022/09/11 05:13:04;;;;;;;;;;;;;;;13.92;100.00;96664.19;5045926;28;19963;-80
2022/09/11 05:15:30;;;;;;;;;;;;;;;13.94;100.00;96664.75;5043876;28;20014;-79
2022/09/11 05:17:56;;;;;;;;;;;;;;;13.95;100.00;96670.81;5047111;28;19963;-79
2022/09/11 05:20:22;;;;;;;;;;;;;;;13.94;100.00;96672.66;5044441;28;19965;-80
2022/09/11 05:22:49;;;;;;;;;;;;;;;13.91;100.00;96675.75;5043593;28;20343;-80
2022/09/11 05:25:17;;;;;;;;;;;;;;;13.91;100.00;96681.03;5048307;28;19956;-80
2022/09/11 05:27:43;;;;;;;;;;;;;;;13.91;100.00;96673.13;5049745;28;19988;-79
2022/09/11 05:30:09;;;;;;;;;;;;;;;13.93;100.00;96678.16;5045240;28;19971;-79
2022/09/11 05:32:35;;;;;;;;;;;;;;;13.95;100.00;96674.25;5042399;28;19960;-79
2022/09/11 05:35:01;;;;;;;;;;;;;;;13.94;100.00;96683.22;5044465;28;20472;-80
2022/09/11 05:37:27;;;;;;;;;;;;;;;13.96;100.00;96686.41;5045545;28;20371;-80
2022/09/11 05:39:53;;;;;;;;;;;;;;;13.93;100.00;96683.44;5047032;28;19968;-79
2022/09/11 05:42:19;;;;;;;;;;;;;;;13.91;100.00;96691.56;5044448;28;19960;-80
2022/09/11 05:44:46;;;;;;;;;;;;;;;13.93;100.00;96686.06;5046771;28;19970;-79
2022/09/11 05:47:13;;;;;;;;;;;;;;;13.97;100.00;96688.00;5038251;28;20446;-80
2022/09/11 05:49:39;;;;;;;;;;;;;;;14.00;100.00;96692.00;5044418;28;19967;-79
2022/09/11 05:52:05;;;;;;;;;;;;;;;14.02;100.00;96700.47;5047447;28;19956;-80
2022/09/11 05:54:31;;;;;;;;;;;;;;;14.06;100.00;96703.47;5047993;28;19964;-80
2022/09/11 05:56:57;;;;;;;;;;;;;;;14.09;100.00;96702.97;5040350;28;20318;-80
2022/09/11 05:59:23;;;;;;;;;;;;;;;14.11;100.00;96701.75;5046569;28;19954;-80
2022/09/11 06:01:49;;;;;;;;;;;;;;;14.14;100.00;96703.91;5043476;28;19956;-80
2022/09/11 06:04:17;;;;;;;;;;;;;;;14.16;100.00;96708.94;5045070;28;19978;-80
2022/09/11 06:06:46;;;;;;;;;;;;;;;14.19;100.00;96709.28;5042292;28;19966;-79
2022/09/11 06:09:12;;;;;;;;;;;;;;;14.21;100.00;96707.22;5042240;28;19956;-80
2022/09/11 06:11:38;;;;;;;;;;;;;;;14.25;100.00;96715.44;5044013;28;20432;-80
2022/09/11 06:14:04;;;;;;;;;;;;;;;14.27;100.00;96716.00;5044222;28;19956;-80
2022/09/11 06:16:30;;;;;;;;;;;;;;;14.28;100.00;96719.44;5046150;28;19952;-80
2022/09/11 06:18:56;;;;;;;;;;;;;;;14.29;100.00;96724.50;5056474;28;20008;-80
2022/09/11 06:21:23;;;;;;;;;;;;;;;14.31;100.00;96724.28;5042630;28;19956;-80
2022/09/11 06:23:50;;;;;;;;;;;;;;;14.33;100.00;96723.00;5043485;28;19964;-80
2022/09/11 06:26:17;;;;;;;;;;;;;;;14.36;100.00;96727.81;5046205;28;20328;-80
2022/09/11 06:28:43;;;;;;;;;;;;;;;14.39;100.00;96727.34;5048634;28;19979;-80
2022/09/11 06:31:16;;;;;;;;;;;;;;;14.40;100.00;96726.31;5044437;28;19966;-80
2022/09/11 06:33:43;;;;;;;;;;;;;;;14.44;100.00;96733.75;5039174;28;19960;-80
2022/09/11 06:36:10;;;;;;;;;;;;;;;14.47;100.00;96730.63;5045898;28;20334;-80
2022/09/11 06:38:39;;;;;;;;;;;;;;;14.49;100.00;96731.19;5044877;28;19963;-80
2022/09/11 06:41:06;;;;;;;;;;;;;;;14.51;100.00;96740.50;5040891;28;19963;-80
2022/09/11 06:43:32;;;;;;;;;;;;;;;14.53;100.00;96741.06;5041475;28;20424;-80
2022/09/11 06:46:04;;;;;;;;;;;;;;;14.56;100.00;96742.44;5042495;28;19959;-80
2022/09/11 06:48:30;;;;;;;;;;;;;;;14.59;100.00;96747.25;5048110;28;19957;-80
2022/09/11 06:50:56;;;;;;;;;;;;;;;14.63;100.00;96744.94;5043436;28;19959;-80
2022/09/11 06:53:22;;;;;;;;;;;;;;;14.62;100.00;96741.50;5041253;28;20050;-80
2022/09/11 06:55:48;;;;;;;;;;;;;;;14.63;100.00;96745.75;5042293;28;19962;-80
2022/09/11 06:58:14;;;;;;;;;;;;;;;14.64;100.00;96747.34;5042906;28;20010;-80
2022/09/11 07:00:40;;;;;;;;;;;;;;;14.67;100.00;96746.88;5048995;28;19976;-80
2022/09/11 07:03:06;;;;;;;;;;;;;;;14.67;100.00;96749.50;5038018;28;19977;-80
2022/09/11 07:05:32;;;;;;;;;;;;;;;14.67;100.00;96754.00;5043544;28;20018;-80
2022/09/11 07:07:58;;;;;;;;;;;;;;;14.71;100.00;96744.56;5040647;28;19962;-79
2022/09/11 07:10:24;;;;;;;;;;;;;;;14.78;100.00;96753.13;5042581;28;20328;-80
2022/09/11 07:12:56;;;;;;;;;;;;;;;14.82;100.00;96743.69;5048772;28;20050;-80
2022/09/11 07:15:22;;;;;;;;;;;;;;;14.86;100.00;96750.09;5046399;28;19960;-80
2022/09/11 07:17:48;;;;;;;;;;;;;;;14.91;100.00;96746.75;5051290;28;19972;-80
2022/09/11 07:20:16;;;;;;;;;;;;;;;14.93;100.00;96747.31;5048009;28;20038;-79
2022/09/11 07:22:44;;;;;;;;;;;;;;;14.97;100.00;96749.28;5043486;28;19965;-80
2022/09/11 07:25:10;;;;;;;;;;;;;;;15.06;100.00;96749.69;5050922;28;19968;-79
2022/09/11 07:27:36;;;;;;;;;;;;;;;15.13;100.00;96760.09;5046679;28;20021;-80
2022/09/11 07:30:02;;;;;;;;;;;;;;;15.15;100.00;96752.72;5049298;28;19967;-80
2022/09/11 07:32:29;;;;;;;;;;;;;;;15.21;100.00;96765.78;5041835;28;19960;-79
2022/09/11 07:34:55;;;;;;;;;;;;;;;15.30;100.00;96768.00;5045368;28;19972;-80
2022/09/11 07:37:21;;;;;;;;;;;;;;;15.32;100.00;96768.56;5046027;28;19960;-79
2022/09/11 07:39:47;;;;;;;;;;;;;;;15.34;100.00;96766.50;5067273;28;20351;-80
2022/09/11 07:42:13;;;;;;;;;;;;;;;15.38;100.00;96768.41;5046107;28;19992;-80
2022/09/11 07:44:40;;;;;;;;;;;;;;;15.39;100.00;96769.22;5047366;28;20446;-80
2022/09/11 07:47:06;;;;;;;;;;;;;;;15.48;100.00;96774.91;5052585;28;19964;-80
2022/09/11 07:49:32;;;;;;;;;;;;;;;15.60;100.00;96781.72;5052580;28;19965;-80
2022/09/11 07:51:58;;;;;;;;;;;;;;;15.71;100.00;96777.38;5045767;28;20466;-80
2022/09/11 07:54:27;;;;;;;;;;;;;;;15.85;100.00;96775.22;5042192;28;19970;-80
2022/09/11 07:56:54;;;;;;;;;;;;;;;15.96;99.48;96782.25;5043689;28;19970;-80
2022/09/11 07:59:21;;;;;;;;;;;;;;;16.07;100.00;96780.56;5046772;28;19975;-80
2022/09/11 08:01:49;;;;;;;;;;;;;;;16.15;100.00;96779.34;5034103;28;20026;-80
2022/09/11 08:04:15;;;;;;;;;;;;;;;16.23;100.00;96778.88;5041220;28;20023;-80
2022/09/11 08:06:41;;;;;;;;;;;;;;;16.19;99.93;96773.31;5053074;28;19963;-80
2022/09/11 08:09:09;;;;;;;;;;;;;;;16.22;100.00;96775.44;5044298;28;19958;-79
2022/09/11 08:11:36;;;;;;;;;;;;;;;16.33;97.40;96770.28;5043497;28;19972;-80
2022/09/11 08:14:02;;;;;;;;;;;;;;;16.41;96.46;96781.22;5046009;28;19959;-80
2022/09/11 08:16:28;;;;;;;;;;;;;;;16.43;95.53;96773.06;5039546;28;19953;-79
2022/09/11 08:18:54;;;;;;;;;;;;;;;16.40;95.85;96779.66;5049216;28;19961;-80
2022/09/11 08:21:21;;;;;;;;;;;;;;;16.37;95.42;96782.78;5050205;28;20020;-80
2022/09/11 08:23:47;;;;;;;;;;;;;;;16.37;96.22;96785.41;5045224;28;20332;-80
2022/09/11 08:26:21;;;;;;;;;;;;;;;16.42;96.60;96782.03;5045784;28;19963;-79
2022/09/11 08:28:49;;;;;;;;;;;;;;;16.44;96.57;96785.22;5047830;28;19960;-79
2022/09/11 08:31:16;;;;;;;;;;;;;;;16.41;90.03;96780.44;5042865;28;19968;-79
2022/09/11 08:33:42;;;;;;;;;;;;;;;16.38;94.22;96789.69;5048819;28;19968;-80
2022/09/11 08:36:09;;;;;;;;;;;;;;;16.33;93.14;96791.47;5046740;28;20399;-78
2022/09/11 08:38:36;;;;;;;;;;;;;;;16.29;95.47;96793.78;5047135;28;19954;-77
2022/09/11 08:41:20;;;;;;;;;;;;;;;16.28;92.59;96788.75;5040751;28;19960;-77
2022/09/11 08:43:49;;;;;;;;;;;;;;;16.43;95.52;96794.22;5034058;28;19976;-77
2022/09/11 08:46:17;;;;;;;;;;;;;;;16.76;91.56;96785.34;5043939;28;19964;-77
2022/09/11 08:48:51;;;;;;;;;;;;;;;17.07;91.39;96785.66;5044948;28;19967;-77
2022/09/11 08:51:17;;;;;;;;;;;;;;;17.38;92.11;96788.59;5047640;28;20342;-77
2022/09/11 08:53:44;;;;;;;;;;;;;;;17.44;91.27;96792.88;5045034;28;20320;-77
2022/09/11 08:56:17;;;;;;;;;;;;;;;17.50;91.15;96799.84;5045712;28;19969;-77
2022/09/11 08:58:43;;;;;;;;;;;;;;;17.76;84.52;96770.84;5045935;28;19963;-77
2022/09/11 09:01:12;;;;;;;;;;;;;;;17.89;85.64;96789.00;5041302;28;19961;-77
2022/09/11 09:03:56;;;;;;;;;;;;;;;17.95;86.40;96787.94;5045294;28;19990;-77
2022/09/11 09:06:31;;;;;;;;;;;;;;;18.14;84.20;96791.00;5046561;28;20335;-77
2022/09/11 09:09:30;;;;;;;;;;;;;;;18.15;82.17;96781.19;5049590;28;20039;-77
2022/09/11 09:12:04;;;;;;;;;;;;;;;18.06;84.80;96810.06;4998527;28;19966;-77
2022/09/11 09:14:30;;;;;;;;;;;;;;;18.07;82.99;96797.59;5042843;28;19960;-77
2022/09/11 09:16:55;;;;;;;;;;;;;;;18.07;83.10;96802.91;5047678;28;19958;-77
2022/09/11 09:19:21;;;;;;;;;;;;;;;17.98;80.79;96795.41;5052192;28;19967;-77
2022/09/11 09:21:57;;;;;;;;;;;;;;;18.03;84.05;96805.25;5046737;28;20005;-78
2022/09/11 09:24:24;;;;;;;;;;;;;;;18.08;79.25;96791.22;5040745;28;20430;-77
2022/09/11 09:26:53;;;;;;;;;;;;;;;18.03;83.14;96810.56;5045480;28;19986;-77
2022/09/11 09:29:23;;;;;;;;;;;;;;;17.90;84.31;96805.72;5049208;28;19963;-78
2022/09/11 09:31:51;;;;;;;;;;;;;;;17.75;82.38;96801.09;5046181;28;20430;-77
2022/09/11 09:34:21;;;;;;;;;;;;;;;17.64;85.07;96814.25;5044499;28;19958;-77
2022/09/11 09:36:51;;;;;;;;;;;;;;;17.55;83.58;96812.31;5039218;28;20322;-77
2022/09/11 09:39:17;;;;;;;;;;;;;;;17.43;82.32;96801.91;5041877;28;20334;-77
2022/09/11 09:42:01;;;;;;;;;;;;;;;17.35;81.59;96803.16;5042224;28;19969;-77
2022/09/11 09:44:33;;;;;;;;;;;;;;;17.29;84.44;96811.31;5044186;28;19977;-77
2022/09/11 09:46:59;;;;;;;;;;;;;;;17.27;81.42;96792.22;5049865;28;19953;-77
2022/09/11 09:49:33;;;;;;;;;;;;;;;17.22;82.16;96803.59;5048461;28;19963;-77
2022/09/11 09:52:02;;;;;;;;;;;;;;;17.25;84.01;96816.31;5041219;28;19961;-77
2022/09/11 09:54:29;;;;;;;;;;;;;;;17.24;84.65;96815.53;5045024;28;20319;-77
2022/09/11 09:56:57;;;;;;;;;;;;;;;17.23;85.64;96819.22;5039600;28;19965;-77
2022/09/11 09:59:42;;;;;;;;;;;;;;;17.19;85.77;96814.66;5048265;28;20412;-78
2022/09/11 10:02:08;;;;;;;;;;;;;;;17.12;86.61;96817.53;5048523;28;19965;-77
2022/09/11 10:04:33;;;;;;;;;;;;;;;17.03;86.50;96814.53;5044052;28;20432;-77
2022/09/11 10:07:08;;;;;;;;;;;;;;;16.96;82.75;96797.22;5043334;28;20023;-77
2022/09/11 10:09:35;;;;;;;;;;;;;;;16.89;84.55;96813.31;5050074;28;19959;-77
2022/09/11 10:12:02;;;;;;;;;;;;;;;16.84;86.16;96814.06;5044681;28;19963;-77
2022/09/11 10:14:31;;;;;;;;;;;;;;;16.80;86.41;96807.66;5042744;28;20408;-78
2022/09/11 10:16:58;;;;;;;;;;;;;;;16.76;85.43;96806.53;5044594;28;19958;-77
2022/09/11 10:19:40;;;;;;;;;;;;;;;16.77;87.29;96812.63;5047471;28;19975;-77
2022/09/11 10:22:20;;;;;;;;;;;;;;;16.82;87.08;96807.44;5045302;28;19964;-77
2022/09/11 10:24:51;;;;;;;;;;;;;;;17.00;83.79;96803.63;5043036;28;19999;-77
2022/09/11 10:27:18;;;;;;;;;;;;;;;17.18;79.14;96782.06;5045835;28;20001;-77
2022/09/11 10:29:49;;;;;;;;;;;;;;;17.43;82.82;96792.09;5045149;28;19963;-77
2022/09/11 10:32:16;;;;;;;;;;;;;;;17.70;75.97;96755.94;5042021;28;19953;-78
2022/09/11 10:34:42;;;;;;;;;;;;;;;17.94;77.58;96770.44;5043604;28;19964;-77
2022/09/11 10:37:14;;;;;;;;;;;;;;;18.18;78.85;96776.13;5043438;28;19958;-77
2022/09/11 10:39:42;;;;;;;;;;;;;;;18.48;78.87;96773.88;5043941;28;19955;-77
2022/09/11 10:42:12;;;;;;;;;;;;;;;18.79;79.26;96780.09;5046235;28;19963;-77
2022/09/11 10:44:40;;;;;;;;;;;;;;;19.09;76.16;96754.63;5038172;28;19970;-77
2022/09/11 10:47:17;;;;;;;;;;;;;;;19.24;77.26;96768.75;5039824;28;19960;-77
2022/09/11 10:49:43;;;;;;;;;;;;;;;19.40;74.38;96755.44;5042349;28;20328;-77
2022/09/11 10:52:09;;;;;;;;;;;;;;;19.53;71.20;96723.00;5044731;28;19961;-78
2022/09/11 10:54:38;;;;;;;;;;;;;;;19.58;72.16;96738.16;5044193;28;20056;-78
2022/09/11 10:57:13;;;;;;;;;;;;;;;19.62;75.25;96765.81;5047738;28;20315;-78
2022/09/11 10:59:50;;;;;;;;;;;;;;;19.57;74.64;96761.31;5041460;28;19964;-77
2022/09/11 11:02:19;;;;;;;;;;;;;;;19.41;72.24;96739.25;5044347;28;19977;-77
2022/09/11 11:04:45;;;;;;;;;;;;;;;19.28;71.26;96747.75;5042300;28;19973;-77
2022/09/11 11:07:23;;;;;;;;;;;;;;;19.33;72.70;96747.75;5041159;28;19967;-78
2022/09/11 11:10:01;;;;;;;;;;;;;;;19.32;74.46;96766.63;5042874;28;19971;-77
2022/09/11 11:12:39;;;;;;;;;;;;;;;19.35;74.64;96763.44;5024764;28;20032;-78
2022/09/11 11:15:18;;;;;;;;;;;;;;;19.59;74.59;96767.16;5037932;28;19959;-78
2022/09/11 11:18:03;;;;;;;;;;;;;;;19.89;70.63;96727.50;5041946;28;19958;-78
2022/09/11 11:20:54;;;;;;;;;;;;;;;20.13;63.49;96677.09;5042662;28;19970;-77
2022/09/11 11:23:21;;;;;;;;;;;;;;;20.40;63.69;96684.69;5008580;28;19972;-78
2022/09/11 11:26:09;;;;;;;;;;;;;;;20.73;63.92;96680.50;5039960;28;19981;-78
2022/09/11 11:28:38;;;;;;;;;;;;;;;21.12;62.10;96671.66;5041645;28;19981;-78
2022/09/11 11:31:04;;;;;;;;;;;;;;;21.37;64.44;96696.53;5038501;28;20325;-78
2022/09/11 11:33:50;;;;;;;;;;;;;;;21.54;65.83;96710.25;5044231;28;20005;-78
2022/09/11 11:36:29;;;;;;;;;;;;;;;21.64;67.43;96718.16;5044750;28;19971;-78
2022/09/11 11:38:59;;;;;;;;;;;;;;;21.61;62.78;96684.06;5048167;28;19967;-77
2022/09/11 11:41:31;;;;;;;;;;;;;;;21.46;64.33;96701.00;5041847;28;19957;-78
2022/09/11 11:44:00;;;;;;;;;;;;;;;21.26;66.41;96733.97;5039836;28;19979;-77
2022/09/11 11:46:29;;;;;;;;;;;;;;;21.09;66.37;96728.22;5048353;28;19956;-78
2022/09/11 11:48:58;;;;;;;;;;;;;;;21.20;65.22;96711.06;5043159;28;20471;-78
2022/09/11 11:51:26;;;;;;;;;;;;;;;21.13;62.17;96689.28;5047775;28;19959;-77
2022/09/11 11:54:01;;;;;;;;;;;;;;;20.93;60.58;96665.44;5048134;28;19967;-78
2022/09/11 11:56:33;;;;;;;;;;;;;;;20.79;62.35;96689.25;5049840;28;19964;-78
2022/09/11 11:59:02;;;;;;;;;;;;;;;20.71;61.74;96690.66;5045863;28;19976;-78
2022/09/11 12:01:48;;;;;;;;;;;;;;;20.70;61.38;96682.91;5041026;28;19970;-78
2022/09/11 12:04:33;;;;;;;;;;;;;;;20.72;63.28;96704.75;5041571;28;20327;-77
2022/09/11 12:07:01;;;;;;;;;;;;;;;20.73;64.83;96714.38;5046710;28;19959;-78
2022/09/11 12:09:30;;;;;;;;;;;;;;;20.71;63.55;96706.63;5050907;28;19956;-78
2022/09/11 12:12:02;;;;;;;;;;;;;;;20.68;62.65;96694.66;5046199;28;19961;-78
2022/09/11 12:14:32;;;;;;;;;;;;;;;20.64;63.37;96695.47;5047939;28;19960;-77
2022/09/11 12:17:17;;;;;;;;;;;;;;;20.61;63.90;96704.81;5042170;28;20449;-77
2022/09/11 12:20:02;;;;;;;;;;;;;;;20.57;63.47;96698.41;5045380;28;19962;-77
2022/09/11 12:22:33;;;;;;;;;;;;;;;20.55;63.45;96697.09;5036123;28;19955;-78
2022/09/11 12:24:59;;;;;;;;;;;;;;;20.47;64.45;96707.28;5040748;28;19983;-77
2022/09/11 12:27:32;;;;;;;;;;;;;;;20.44;65.18;96715.81;5049362;28;19983;-77
2022/09/11 12:30:19;;;;;;;;;;;;;;;20.33;65.03;96716.94;5045181;28;19970;-78
2022/09/11 12:32:46;;;;;;;;;;;;;;;20.24;65.83;96708.72;5046970;28;19962;-78
2022/09/11 12:35:14;;;;;;;;;;;;;;;20.25;66.38;96725.50;5045874;28;19955;-77
2022/09/11 12:37:40;;;;;;;;;;;;;;;20.24;63.95;96705.25;5042217;28;19955;-77
2022/09/11 12:40:09;;;;;;;;;;;;;;;20.23;65.54;96717.78;5047812;28;20471;-78
2022/09/11 12:42:38;;;;;;;;;;;;;;;20.23;63.87;96701.78;5047611;28;19960;-77
2022/09/11 12:45:24;;;;;;;;;;;;;;;20.28;65.10;96711.63;5039380;28;19965;-77
2022/09/11 12:47:50;;;;;;;;;;;;;;;20.34;64.98;96704.41;5046408;28;20403;-77
2022/09/11 12:50:18;;;;;;;;;;;;;;;20.37;65.42;96710.00;5049763;28;19967;-77
2022/09/11 12:52:43;;;;;;;;;;;;;;;20.39;67.25;96723.03;5041477;28;19965;-77